Etusivu
METAR-TAF:

METAR-TAF

Lentoasemat :

Cherbourg, Ranska

Leveyspiiri: 49-39N, Pituuspiiri: 001-28W, korkeus merenpinnasta: 138 m

Tämänhetkinen sää

Tämä raportti tehtiin 34 minuuttia sitten, kello 15.00 UTC
Tuuli 4 kn pohjoisen/luoteesta, vaihdellen lännen/luoteen ja pohjoisen/koillisen välillä
Lämpötila 10°C
Kosteus 87%
Ilmanpaine 1033 hPa
Näkyvyys 10 km tai enemmän
Pilvistä 2000 ft:n korkeudessa

METAR: LFRC 211500Z AUTO 34004KT 300V020 9999 OVC020 10/08 Q1033 TEMPO BKN014

Aika: 16:34 (15:34 UTC)

Sääennuste

Tämä raportti tehtiin 1 tunti ja 34 minuuttia sitten, kello 14.00 UTC
Ennuste voimassa 21. päivästä klo 15 UTC - 21. päivään klo 24 UTC
Tuuli 4 kn eri suunnista
Näkyvyys 10 km tai enemmän
Hajonneita pilviä 2000 ft:n korkeudessa
Ajoittain
21. päivästä klo 15 UTC - 21. päivään klo 24 UTC
Hajonneita pilviä 1400 ft:n korkeudessa

TAF: LFRC 211400Z 2115/2124 VRB04KT 9999 BKN020 TEMPO 2115/2124 BKN014

Säähavainnot ja -ennusteet yli 4000 lentoasemalta (METAR- ja TAF-raportit).

Käytössä olevat sääasemat on merkitty karttaan keltaisilla ja punaisilla pisteillä.

Aseta hiiri pisteen päälle nähdäksesi sääaseman nimen.

Klikkaa sitten nähdäksesi säähavainnot ja -ennusteet.

Kartan vaihtaminen: klikkaa mustalla rastilla varustettuja vihreitä pisteitä, niin voit zoomata sisään; viivalla varustettua vihreää pistettä, niin voit zoomata ulos tai vihreitä nuolia, niin pääset viereisille kartoille.


METAR-TAF: